Time;durP1;ratioP1;P1;durP2;ratioP2;P2;SDS_P1;SDS_P2;PMS_P1;PMS_P2;Temp;Humidity;BMP_temperature;BMP_pressure;BME280_temperature;BME280_humidity;BME280_pressure;Samples;Min_cycle;Max_cycle;Signal;HPM_P1;HPM_P2
2022/01/08 00:00:34;;;;;;;20.77;11.18;;;;;;;0.98;94.90;100972.88;5089625;28;20016;-83
2022/01/08 00:02:59;;;;;;;16.42;10.43;;;;;;;0.96;95.14;100987.63;5091353;28;20032;-82
2022/01/08 00:05:25;;;;;;;17.05;10.82;;;;;;;0.93;95.08;100977.34;5090240;28;20020;-82
2022/01/08 00:07:51;;;;;;;17.85;10.75;;;;;;;0.91;94.99;100984.31;5090961;28;20110;-83
2022/01/08 00:10:16;;;;;;;16.30;10.63;;;;;;;0.86;94.47;100986.22;5091567;28;20433;-82
2022/01/08 00:12:41;;;;;;;18.05;11.20;;;;;;;0.80;94.81;100979.50;5089946;28;20039;-82
2022/01/08 00:15:08;;;;;;;17.98;10.80;;;;;;;0.73;94.71;100984.88;5071599;28;20029;-82
2022/01/08 00:17:37;;;;;;;16.48;11.10;;;;;;;0.73;94.57;100990.06;5086738;28;20364;-82
2022/01/08 00:20:05;;;;;;;15.95;10.63;;;;;;;0.70;94.09;100995.34;5090924;28;20460;-83
2022/01/08 00:22:31;;;;;;;17.27;11.35;;;;;;;0.66;94.80;100998.94;5090977;28;20058;-83
2022/01/08 00:24:56;;;;;;;19.88;11.02;;;;;;;0.65;94.55;101005.00;5090336;28;20514;-82
2022/01/08 00:27:22;;;;;;;19.92;11.40;;;;;;;0.60;94.54;101000.81;5090169;28;20032;-82
2022/01/08 00:29:49;;;;;;;25.83;12.40;;;;;;;0.56;94.96;100991.44;5091391;28;20067;-82
2022/01/08 00:32:14;;;;;;;21.42;12.10;;;;;;;0.54;94.66;100989.78;5090620;28;20257;-83
2022/01/08 00:34:41;;;;;;;18.98;11.82;;;;;;;0.49;95.08;100992.53;5089017;28;20111;-82
2022/01/08 00:37:07;;;;;;;19.05;11.00;;;;;;;0.52;95.40;100996.75;5090755;28;20095;-82
2022/01/08 00:39:33;;;;;;;18.35;11.60;;;;;;;0.49;94.60;100999.44;5089237;28;20081;-82
2022/01/08 00:41:58;;;;;;;19.70;11.95;;;;;;;0.39;95.10;100985.91;5087190;28;20080;-82
2022/01/08 00:44:24;;;;;;;17.42;11.90;;;;;;;0.43;95.09;100999.63;5089870;28;20095;-83
2022/01/08 00:46:49;;;;;;;18.45;11.75;;;;;;;0.43;95.12;101008.25;5088393;28;20028;-83
2022/01/08 00:49:15;;;;;;;16.45;12.05;;;;;;;0.38;94.82;101015.28;5089964;28;20080;-83
2022/01/08 00:51:40;;;;;;;22.25;12.70;;;;;;;0.38;95.14;101024.78;5089825;28;20028;-82
2022/01/08 00:54:06;;;;;;;20.33;12.38;;;;;;;0.36;94.86;101022.22;5088179;28;20060;-83
2022/01/08 00:56:31;;;;;;;21.80;12.23;;;;;;;0.38;95.74;101020.44;5088101;28;20502;-83
2022/01/08 00:58:57;;;;;;;19.27;13.25;;;;;;;0.37;95.76;101025.66;5076258;28;20028;-83
2022/01/08 01:01:22;;;;;;;19.85;12.93;;;;;;;0.38;95.61;101019.59;5087486;28;20024;-83
2022/01/08 01:03:48;;;;;;;22.05;12.82;;;;;;;0.36;95.40;101022.22;5088370;28;20013;-83
2022/01/08 01:06:13;;;;;;;19.83;13.00;;;;;;;0.37;95.53;101017.91;5089751;28;20020;-83
2022/01/08 01:08:38;;;;;;;22.92;13.02;;;;;;;0.35;95.90;101015.38;5089223;28;20428;-83
2022/01/08 01:11:04;;;;;;;19.65;12.90;;;;;;;0.34;95.56;101005.91;5088340;28;20655;-83
2022/01/08 01:13:29;;;;;;;21.70;13.70;;;;;;;0.40;95.82;101013.50;5090080;28;20016;-83
2022/01/08 01:15:55;;;;;;;22.45;13.80;;;;;;;0.40;95.97;101013.50;5088414;28;20046;-83
2022/01/08 01:18:20;;;;;;;21.75;13.70;;;;;;;0.38;96.46;101017.84;5089190;28;20036;-84
2022/01/08 01:20:46;;;;;;;23.67;14.65;;;;;;;0.39;96.37;101014.38;5089098;28;20387;-83
2022/01/08 01:23:19;;;;;;;22.15;14.35;;;;;;;0.37;95.88;101011.00;5089909;28;20035;-83
2022/01/08 01:25:52;;;;;;;26.85;14.95;;;;;;;0.35;95.88;101006.75;5089350;28;20031;-83
2022/01/08 01:42:13;;;;;;;25.25;15.30;;;;;;;0.22;95.04;101020.06;5090286;28;20058;-85
2022/01/08 01:47:32;;;;;;;26.95;16.30;;;;;;;0.14;96.10;101026.34;5089427;28;20039;-85
2022/01/08 01:49:58;;;;;;;24.10;16.90;;;;;;;0.16;95.45;101037.50;5084639;28;20036;-85
2022/01/08 01:52:23;;;;;;;26.00;17.20;;;;;;;0.13;95.79;101024.66;5067329;28;20028;-84
2022/01/08 01:54:49;;;;;;;26.83;17.33;;;;;;;0.12;95.90;101020.38;5067687;28;20401;-86
2022/01/08 01:57:16;;;;;;;27.63;18.13;;;;;;;0.11;95.31;101023.84;5067912;28;20028;-86
2022/01/08 01:59:44;;;;;;;28.85;17.27;;;;;;;0.05;96.04;101022.28;5068906;28;20039;-85
2022/01/08 02:02:09;;;;;;;25.90;17.40;;;;;;;0.06;95.79;101028.31;5067808;28;20115;-85
2022/01/08 02:04:35;;;;;;;24.77;17.85;;;;;;;0.05;95.77;101029.19;5067155;28;20265;-83
2022/01/08 02:07:01;;;;;;;29.00;18.50;;;;;;;0.07;95.95;101035.16;5084834;28;20267;-86
2022/01/08 02:09:27;;;;;;;26.95;17.92;;;;;;;0.02;96.01;101021.53;5088992;28;20379;-86
2022/01/08 02:11:58;;;;;;;28.30;18.35;;;;;;;0.05;95.80;101036.94;5088570;28;20024;-86
2022/01/08 02:14:25;;;;;;;31.08;18.20;;;;;;;0.02;95.56;101031.88;5087168;28;20447;-85
2022/01/08 02:16:50;;;;;;;32.45;19.05;;;;;;;-0.02;96.06;101036.25;5104606;28;20396;-85
2022/01/08 02:19:16;;;;;;;26.40;18.30;;;;;;;-0.03;96.32;101019.88;5104039;28;20031;-85
2022/01/08 02:21:56;;;;;;;29.50;18.33;;;;;;;-0.02;96.20;101031.91;5087848;28;20426;-84
2022/01/08 02:24:23;;;;;;;26.95;18.98;;;;;;;0.00;96.24;101044.84;5087144;28;20035;-85
2022/01/08 02:26:48;;;;;;;25.88;17.90;;;;;;;-0.02;96.64;101044.00;5088891;28;20035;-84
2022/01/08 02:29:16;;;;;;;28.50;18.80;;;;;;;-0.12;96.57;101035.66;5089524;28;20024;-85
2022/01/08 02:32:15;;;;;;;34.30;18.63;;;;;;;-0.09;96.33;101045.06;5085116;28;20451;-84
2022/01/08 02:34:41;;;;;;;31.38;18.73;;;;;;;-0.04;96.22;101048.38;5068076;28;20396;-84
2022/01/08 02:37:08;;;;;;;27.52;18.83;;;;;;;-0.07;96.83;101048.47;5069469;28;20107;-85
2022/01/08 02:39:39;;;;;;;31.88;19.55;;;;;;;-0.12;96.64;101043.41;5071324;28;20513;-84
2022/01/08 02:42:06;;;;;;;34.65;19.05;;;;;;;-0.04;97.30;101054.38;5069079;28;20055;-84
2022/01/08 02:44:33;;;;;;;35.10;20.58;;;;;;;-0.11;97.29;101046.84;5066961;28;20412;-85
2022/01/08 02:46:59;;;;;;;31.67;19.17;;;;;;;-0.09;97.34;101048.50;5068546;28;20051;-84
2022/01/08 02:49:24;;;;;;;37.60;19.98;;;;;;;-0.04;97.34;101056.13;5069055;28;20056;-85
2022/01/08 02:51:51;;;;;;;37.72;20.15;;;;;;;-0.05;97.44;101057.88;5084917;28;20507;-85
2022/01/08 02:54:16;;;;;;;34.10;20.35;;;;;;;-0.01;97.47;101053.47;5068211;28;20025;-85
2022/01/08 02:56:44;;;;;;;31.65;19.20;;;;;;;-0.02;98.09;101060.38;5076029;28;20464;-84
2022/01/08 02:59:10;;;;;;;30.50;18.83;;;;;;;0.02;98.16;101052.56;5068566;28;20154;-84
2022/01/08 03:01:36;;;;;;;30.70;19.83;;;;;;;0.02;97.46;101049.97;5074149;28;20031;-85
2022/01/08 03:04:03;;;;;;;32.75;20.13;;;;;;;-0.03;97.56;101044.91;5102761;28;20030;-84
2022/01/08 03:06:28;;;;;;;34.33;19.63;;;;;;;0.03;97.87;101060.28;5086931;28;20053;-84
2022/01/08 03:08:54;;;;;;;31.83;19.45;;;;;;;0.05;98.11;101060.22;5086783;28;20031;-84
2022/01/08 03:11:20;;;;;;;27.95;18.90;;;;;;;0.04;97.42;101049.03;5086704;28;20024;-84
2022/01/08 03:13:46;;;;;;;34.20;19.52;;;;;;;0.01;97.24;101050.88;5080432;28;20027;-83
2022/01/08 03:16:14;;;;;;;27.85;19.27;;;;;;;0.03;97.84;101049.94;5077545;28;20375;-84
2022/01/08 03:18:40;;;;;;;32.20;18.40;;;;;;;0.04;97.61;101055.94;5070724;28;20039;-84
2022/01/08 03:21:15;;;;;;;36.88;19.25;;;;;;;0.05;97.49;101057.66;5070457;28;20016;-83
2022/01/08 03:24:00;;;;;;;32.58;18.35;;;;;;;0.02;97.40;101053.41;5069749;28;20036;-84
2022/01/08 03:26:27;;;;;;;35.60;18.98;;;;;;;0.00;97.51;101055.19;5071278;28;20338;-86
2022/01/08 03:28:55;;;;;;;30.67;18.35;;;;;;;0.01;98.04;101067.22;5070120;28;20016;-85
2022/01/08 03:31:23;;;;;;;29.65;18.75;;;;;;;-0.01;98.06;101062.06;5080435;28;20036;-84
2022/01/08 03:33:49;;;;;;;28.67;18.10;;;;;;;-0.01;97.43;101059.47;5108316;28;20048;-84
2022/01/08 03:36:17;;;;;;;28.83;17.92;;;;;;;-0.03;97.68;101058.66;5091593;28;20083;-83
2022/01/08 03:38:43;;;;;;;31.02;18.67;;;;;;;-0.03;97.70;101058.66;5107575;28;20042;-85
2022/01/08 03:41:09;;;;;;;29.20;17.95;;;;;;;-0.02;97.92;101059.53;5092410;28;20103;-85
2022/01/08 03:43:35;;;;;;;31.50;17.88;;;;;;;-0.01;97.60;101058.63;5090324;28;20030;-84
2022/01/08 03:46:03;;;;;;;31.88;17.85;;;;;;;-0.04;97.57;101053.53;5092453;28;20036;-85
2022/01/08 03:48:32;;;;;;;28.23;17.60;;;;;;;-0.02;97.47;101059.53;5089729;28;20027;-84
2022/01/08 03:50:59;;;;;;;32.17;17.45;;;;;;;-0.04;97.77;101049.22;5090113;28;20043;-84
2022/01/08 03:53:26;;;;;;;31.85;17.58;;;;;;;-0.05;98.04;101051.84;5090536;28;20426;-83
2022/01/08 03:55:51;;;;;;;31.05;17.98;;;;;;;-0.04;97.94;101056.13;5091001;28;20036;-83
2022/01/08 03:58:17;;;;;;;33.63;17.52;;;;;;;-0.04;98.05;101054.38;5091048;28;20437;-85
2022/01/08 04:00:42;;;;;;;34.15;17.40;;;;;;;-0.04;98.29;101062.16;5089926;28;20076;-83
2022/01/08 04:03:08;;;;;;;30.65;17.45;;;;;;;-0.05;98.38;101063.03;5092131;28;20032;-84
2022/01/08 04:05:33;;;;;;;31.05;17.27;;;;;;;-0.06;98.09;101066.50;5089616;28;20069;-83
2022/01/08 04:07:59;;;;;;;27.00;17.35;;;;;;;-0.06;97.77;101076.84;5071278;28;20017;-83
2022/01/08 04:10:24;;;;;;;25.48;17.40;;;;;;;-0.06;98.10;101076.84;5070938;28;20021;-83
2022/01/08 04:12:55;;;;;;;27.48;16.63;;;;;;;-0.06;98.13;101076.84;5072137;28;20020;-84
2022/01/08 04:17:50;;;;;;;34.28;16.30;;;;;;;-0.06;97.86;101076.84;5070223;28;20040;-83
2022/01/08 04:20:16;;;;;;;35.15;17.67;;;;;;;-0.07;98.55;101080.34;5070776;28;20031;-85
2022/01/08 04:22:44;;;;;;;25.58;16.98;;;;;;;-0.06;97.80;101084.63;5069389;28;20036;-85
2022/01/08 04:25:10;;;;;;;29.63;17.98;;;;;;;-0.08;97.92;101072.63;5088402;28;20050;-84
2022/01/08 04:27:35;;;;;;;30.65;16.98;;;;;;;-0.09;98.33;101070.94;5089876;28;20028;-85
2022/01/08 04:30:00;;;;;;;31.42;16.70;;;;;;;-0.11;97.85;101078.72;5089011;28;20336;-84
2022/01/08 04:32:26;;;;;;;37.35;17.63;;;;;;;-0.10;97.80;101079.56;5089645;28;20044;-84
2022/01/08 04:34:51;;;;;;;28.50;16.45;;;;;;;-0.07;98.10;101095.00;5090064;28;20028;-84
2022/01/08 04:37:16;;;;;;;26.40;16.90;;;;;;;-0.07;98.31;101095.84;5092505;28;20476;-84
2022/01/08 04:39:43;;;;;;;31.60;16.85;;;;;;;-0.07;97.92;101101.03;5090081;28;20042;-84
2022/01/08 04:42:08;;;;;;;28.23;17.20;;;;;;;-0.09;98.22;101100.22;5087648;28;20447;-84
2022/01/08 04:44:34;;;;;;;29.08;16.27;;;;;;;-0.09;98.27;101092.47;5089116;28;20110;-84
2022/01/08 04:46:59;;;;;;;30.75;17.48;;;;;;;-0.08;97.78;101086.41;5090733;28;20430;-84
2022/01/08 04:49:24;;;;;;;29.27;16.67;;;;;;;-0.10;98.59;101090.75;5090203;28;20020;-84
2022/01/08 04:51:50;;;;;;;32.72;17.20;;;;;;;-0.05;98.08;101104.41;5107345;28;20028;-84
2022/01/08 04:54:15;;;;;;;31.88;16.55;;;;;;;-0.08;98.47;101099.31;5090827;28;20106;-84
2022/01/08 04:56:44;;;;;;;33.75;17.48;;;;;;;-0.05;99.02;101106.16;5091281;28;20022;-84
2022/01/08 04:59:09;;;;;;;33.03;16.30;;;;;;;-0.09;98.31;101113.16;5089280;28;20050;-84
2022/01/08 05:01:35;;;;;;;27.05;15.88;;;;;;;-0.10;98.62;101102.84;5087616;28;20103;-84
2022/01/08 05:04:00;;;;;;;31.92;16.40;;;;;;;-0.11;98.59;101104.59;5088818;28;20118;-84
2022/01/08 05:06:26;;;;;;;27.38;15.13;;;;;;;-0.12;98.37;101108.06;5089702;28;20107;-84
2022/01/08 05:08:51;;;;;;;23.90;15.65;;;;;;;-0.11;98.77;101117.50;5101512;28;20016;-84
2022/01/08 05:11:16;;;;;;;29.52;16.13;;;;;;;-0.11;98.31;101120.09;5089500;28;20123;-84
2022/01/08 05:13:44;;;;;;;26.00;15.88;;;;;;;-0.09;97.96;101123.50;5079701;28;20021;-84
2022/01/08 05:16:10;;;;;;;27.55;15.55;;;;;;;-0.12;98.82;101128.75;5075521;28;20109;-84
2022/01/08 05:18:35;;;;;;;22.33;14.45;;;;;;;-0.11;98.31;101117.50;5089788;28;20027;-84
2022/01/08 05:23:57;;;;;;;27.05;15.60;;;;;;;-0.13;98.67;101115.84;5085161;28;20126;-84
2022/01/08 05:26:25;;;;;;;24.40;14.55;;;;;;;-0.14;98.29;101111.56;5089279;28;20043;-84
2022/01/08 05:28:54;;;;;;;28.13;15.02;;;;;;;-0.11;98.52;101120.09;5087803;28;20027;-84
2022/01/08 05:31:22;;;;;;;25.00;15.30;;;;;;;-0.13;99.25;101111.53;5088247;28;20118;-84
2022/01/08 05:33:48;;;;;;;30.38;15.40;;;;;;;-0.09;99.16;101120.91;5088321;28;20396;-84
2022/01/08 05:36:14;;;;;;;23.63;15.13;;;;;;;-0.07;99.28;101115.69;5087422;28;20032;-85
2022/01/08 05:38:39;;;;;;;27.83;14.77;;;;;;;-0.10;98.88;101116.63;5073879;28;20365;-83
2022/01/08 05:41:05;;;;;;;27.80;14.63;;;;;;;-0.05;99.34;101111.31;5089334;28;20028;-83
2022/01/08 05:43:30;;;;;;;25.50;14.05;;;;;;;-0.08;99.99;101099.31;5088399;28;20028;-83
2022/01/08 05:45:56;;;;;;;33.85;15.50;;;;;;;-0.06;99.80;101096.69;5089500;28;20024;-84
2022/01/08 05:48:22;;;;;;;29.25;14.25;;;;;;;-0.04;100.00;101113.88;5103813;28;20511;-83
2022/01/08 05:50:49;;;;;;;23.88;13.70;;;;;;;-0.08;99.53;101114.84;5088437;28;20039;-86
2022/01/08 05:53:16;;;;;;;27.63;14.02;;;;;;;-0.08;99.46;101120.00;5105513;28;20028;-86
2022/01/08 05:55:42;;;;;;;25.13;13.68;;;;;;;-0.08;99.18;101124.34;5089282;28;20127;-83
2022/01/08 05:58:07;;;;;;;29.45;14.05;;;;;;;-0.11;99.38;101120.09;5088693;28;20082;-83
2022/01/08 06:00:32;;;;;;;26.42;14.15;;;;;;;-0.07;99.43;101142.41;5088459;28;20020;-83
2022/01/08 06:02:58;;;;;;;22.38;13.95;;;;;;;-0.11;99.89;101138.19;5089212;28;20024;-83
2022/01/08 06:05:23;;;;;;;25.63;13.15;;;;;;;-0.12;99.49;101138.25;5081201;28;20432;-83
2022/01/08 06:07:49;;;;;;;24.05;13.48;;;;;;;-0.15;99.49;101135.72;5069575;28;20033;-83
2022/01/08 06:10:14;;;;;;;31.73;13.93;;;;;;;-0.08;99.54;101150.19;5068565;28;20025;-83
2022/01/08 06:12:40;;;;;;;25.77;13.02;;;;;;;-0.15;99.59;101133.16;5084960;28;20395;-83
2022/01/08 06:15:05;;;;;;;22.25;13.52;;;;;;;-0.09;99.07;101151.09;5069274;28;20543;-84
2022/01/08 06:17:31;;;;;;;19.67;13.45;;;;;;;-0.13;99.42;101139.13;5085207;28;20328;-86
2022/01/08 06:19:56;;;;;;;30.67;14.43;;;;;;;-0.12;99.34;101144.25;5088163;28;20119;-87
2022/01/08 06:22:22;;;;;;;26.48;14.05;;;;;;;-0.15;99.94;101144.34;5088539;28;20102;-86
2022/01/08 06:24:47;;;;;;;24.80;14.45;;;;;;;-0.12;99.75;101146.00;5087776;28;20456;-86
2022/01/08 06:27:12;;;;;;;28.25;15.18;;;;;;;-0.05;100.00;101156.16;5089444;28;20468;-84
2022/01/08 06:29:38;;;;;;;27.55;14.95;;;;;;;-0.07;100.00;101146.72;5089290;28;20043;-84
2022/01/08 06:32:03;;;;;;;27.17;15.93;;;;;;;-0.07;100.00;101142.41;5084667;28;20151;-83
2022/01/08 06:34:29;;;;;;;24.38;14.80;;;;;;;-0.04;99.99;101142.31;5068979;28;20056;-83
2022/01/08 06:36:54;;;;;;;29.77;15.60;;;;;;;-0.06;100.00;101127.72;5068579;28;20021;-83
2022/01/08 06:39:20;;;;;;;28.88;15.68;;;;;;;-0.06;100.00;101128.59;5087165;28;20051;-83
2022/01/08 06:41:45;;;;;;;29.05;14.93;;;;;;;-0.03;100.00;101123.34;5089400;28;20034;-83
2022/01/08 06:44:14;;;;;;;29.20;15.20;;;;;;;-0.01;100.00;101126.72;5105089;28;20056;-83
2022/01/08 06:46:40;;;;;;;32.75;15.27;;;;;;;-0.03;99.91;101125.91;5088534;28;20725;-83
2022/01/08 06:49:07;;;;;;;30.23;14.30;;;;;;;-0.04;100.00;101120.78;5090412;28;20077;-83
2022/01/08 06:51:32;;;;;;;26.98;15.63;;;;;;;-0.05;100.00;101119.94;5091984;28;20419;-83
2022/01/08 06:53:57;;;;;;;26.48;13.98;;;;;;;-0.05;100.00;101109.59;5088780;28;20020;-84
2022/01/08 06:56:23;;;;;;;31.55;14.40;;;;;;;-0.04;100.00;101111.28;5071960;28;20063;-83
2022/01/08 06:58:48;;;;;;;32.30;15.25;;;;;;;-0.04;100.00;101116.47;5071989;28;20013;-83
2022/01/08 07:01:14;;;;;;;25.58;14.88;;;;;;;-0.04;99.75;101120.78;5070132;28;20020;-83
2022/01/08 07:03:39;;;;;;;33.38;14.50;;;;;;;-0.02;100.00;101125.03;5072091;28;20043;-83
2022/01/08 07:06:05;;;;;;;29.27;14.05;;;;;;;-0.02;99.86;101127.63;5072032;28;20035;-83
2022/01/08 07:08:31;;;;;;;31.38;15.23;;;;;;;-0.03;100.00;101122.47;5069655;28;20051;-83
2022/01/08 07:10:56;;;;;;;33.83;15.20;;;;;;;-0.03;100.00;101123.34;5082641;28;20024;-84
2022/01/08 07:13:22;;;;;;;29.85;14.50;;;;;;;-0.05;99.99;101114.75;5091521;28;20023;-83
2022/01/08 07:15:47;;;;;;;26.85;14.63;;;;;;;-0.05;100.00;101113.91;5082081;28;20090;-84
2022/01/08 07:18:12;;;;;;;25.42;14.00;;;;;;;-0.05;100.00;101119.09;5091521;28;20498;-83
2022/01/08 07:20:38;;;;;;;25.10;14.80;;;;;;;-0.05;99.88;101122.53;5093861;28;20020;-83
2022/01/08 07:23:03;;;;;;;28.75;14.15;;;;;;;-0.05;99.89;101119.94;5105980;28;20032;-84
2022/01/08 07:25:29;;;;;;;27.92;14.55;;;;;;;-0.06;99.70;101127.72;5087305;28;20026;-84
2022/01/08 07:27:54;;;;;;;27.83;14.05;;;;;;;-0.11;99.83;101114.94;5083567;28;20161;-84
2022/01/08 07:30:20;;;;;;;30.20;14.52;;;;;;;-0.06;99.91;101127.72;5080562;28;20093;-84
2022/01/08 07:32:48;;;;;;;27.95;14.55;;;;;;;-0.09;100.00;101115.72;5083771;28;20123;-84
2022/01/08 07:35:15;;;;;;;28.40;15.38;;;;;;;-0.06;100.00;101122.56;5075533;28;20024;-84
2022/01/08 07:37:43;;;;;;;33.80;15.98;;;;;;;-0.08;100.00;101119.16;5073338;28;20056;-84
2022/01/08 07:40:10;;;;;;;31.85;15.35;;;;;;;-0.07;100.00;101121.72;5071456;28;20016;-84
2022/01/08 07:42:35;;;;;;;30.85;15.20;;;;;;;-0.07;100.00;101121.72;5072204;28;20060;-83
2022/01/08 07:45:01;;;;;;;31.80;14.98;;;;;;;-0.04;100.00;101126.81;5089876;28;20052;-84
2022/01/08 07:47:27;;;;;;;30.00;14.73;;;;;;;-0.04;100.00;101115.59;5070303;28;20039;-84
2022/01/08 07:49:55;;;;;;;29.40;14.63;;;;;;;-0.03;100.00;101120.75;5070533;28;20009;-84
2022/01/08 07:52:20;;;;;;;27.52;15.43;;;;;;;-0.02;100.00;101119.84;5068649;28;20020;-83
2022/01/08 07:54:46;;;;;;;31.50;15.75;;;;;;;0.03;100.00;101116.31;5070982;28;20020;-84
2022/01/08 07:57:14;;;;;;;28.05;15.40;;;;;;;0.02;100.00;101114.63;5070667;28;20120;-83
2022/01/08 07:59:42;;;;;;;34.80;15.82;;;;;;;0.05;100.00;101104.19;5072061;28;20446;-84
2022/01/08 08:02:07;;;;;;;29.75;15.68;;;;;;;0.07;100.00;101105.00;5068574;28;20028;-84
2022/01/08 08:04:33;;;;;;;30.15;15.73;;;;;;;0.07;100.00;101095.50;5068070;28;20399;-84
2022/01/08 08:06:58;;;;;;;29.88;15.68;;;;;;;0.09;100.00;101098.06;5070712;28;20032;-83
2022/01/08 08:09:23;;;;;;;35.55;16.02;;;;;;;0.11;100.00;101096.28;5070108;28;20028;-84
2022/01/08 08:11:49;;;;;;;32.05;16.30;;;;;;;0.15;100.00;101100.47;5088622;28;20082;-83
2022/01/08 08:14:14;;;;;;;30.92;16.13;;;;;;;0.17;100.00;101104.72;5085045;28;20022;-84
2022/01/08 08:16:40;;;;;;;34.92;16.25;;;;;;;0.18;100.00;101098.66;5080748;28;20422;-84
2022/01/08 08:19:06;;;;;;;33.00;16.52;;;;;;;0.21;100.00;101095.13;5074420;28;20047;-83
2022/01/08 08:21:31;;;;;;;30.23;16.98;;;;;;;0.22;100.00;101094.22;5070114;28;20383;-83
2022/01/08 08:23:56;;;;;;;30.45;16.83;;;;;;;0.23;100.00;101088.16;5070323;28;20067;-83
2022/01/08 08:26:22;;;;;;;34.25;17.10;;;;;;;0.26;100.00;101083.75;5083932;28;20067;-83
2022/01/08 08:28:47;;;;;;;36.75;18.67;;;;;;;0.27;100.00;101082.00;5088843;28;20065;-83
2022/01/08 08:31:13;;;;;;;40.92;17.92;;;;;;;0.32;100.00;101093.09;5089374;28;20103;-83
2022/01/08 08:33:39;;;;;;;39.17;19.52;;;;;;;0.31;100.00;101070.69;5087718;28;20027;-84
2022/01/08 08:36:04;;;;;;;37.97;19.70;;;;;;;0.36;100.00;101084.34;5084747;28;20030;-84
2022/01/08 08:38:30;;;;;;;40.17;19.83;;;;;;;0.37;100.00;101080.88;5084366;28;20024;-84
2022/01/08 08:40:55;;;;;;;36.83;20.17;;;;;;;0.40;100.00;101082.50;5070628;28;20024;-84
2022/01/08 08:43:21;;;;;;;34.28;19.88;;;;;;;0.38;100.00;101066.19;5098599;28;20019;-83
2022/01/08 08:45:46;;;;;;;31.27;19.98;;;;;;;0.43;100.00;101075.53;5082650;28;20054;-83
2022/01/08 08:48:12;;;;;;;40.42;22.08;;;;;;;0.42;100.00;101068.66;5075809;28;20460;-84
2022/01/08 08:50:37;;;;;;;36.00;21.77;;;;;;;0.47;100.00;101068.53;5070181;28;20442;-83
2022/01/08 08:53:03;;;;;;;41.63;22.70;;;;;;;0.49;100.00;101070.19;5081259;28;20536;-83
2022/01/08 08:55:28;;;;;;;46.38;23.20;;;;;;;0.52;100.00;101066.66;5082640;28;20031;-83
2022/01/08 08:57:53;;;;;;;47.67;23.67;;;;;;;0.53;100.00;101066.59;5090701;28;20035;-83
2022/01/08 09:00:22;;;;;;;41.05;23.20;;;;;;;0.56;100.00;101069.09;5090223;28;20032;-84
2022/01/08 09:02:47;;;;;;;45.22;23.77;;;;;;;0.59;100.00;101071.59;5090025;28;20047;-83
2022/01/08 09:05:13;;;;;;;41.42;23.75;;;;;;;0.61;100.00;101069.81;5085147;28;20483;-83
2022/01/08 09:07:39;;;;;;;46.92;24.67;;;;;;;0.62;100.00;101068.91;5079119;28;20024;-83
2022/01/08 09:10:06;;;;;;;46.22;24.25;;;;;;;0.67;100.00;101073.97;5082541;28;20043;-83
2022/01/08 09:12:32;;;;;;;45.75;23.45;;;;;;;0.67;100.00;101071.38;5070704;28;20043;-83
2022/01/08 09:14:57;;;;;;;44.75;24.10;;;;;;;0.69;100.00;101066.16;5086970;28;20464;-84
2022/01/08 09:17:24;;;;;;;46.08;24.35;;;;;;;0.73;100.00;101070.34;5073302;28;20030;-83
2022/01/08 09:19:50;;;;;;;43.50;24.65;;;;;;;0.75;100.00;101071.13;5069348;28;20032;-84
2022/01/08 09:22:15;;;;;;;44.55;25.02;;;;;;;0.73;100.00;101054.81;5067646;28;20460;-83
2022/01/08 09:24:42;;;;;;;39.65;23.98;;;;;;;0.76;100.00;101054.72;5069632;28;20069;-82
2022/01/08 09:27:07;;;;;;;45.67;23.90;;;;;;;0.78;100.00;101038.22;5083768;28;20032;-83
2022/01/08 09:29:33;;;;;;;41.72;23.27;;;;;;;0.80;100.00;101036.47;5089391;28;20020;-82
2022/01/08 09:31:59;;;;;;;46.38;23.67;;;;;;;0.85;100.00;101042.34;5089169;28;20130;-85
2022/01/08 09:34:24;;;;;;;51.33;24.20;;;;;;;0.87;100.00;101029.34;5086227;28;20110;-82
2022/01/08 09:36:50;;;;;;;42.80;22.40;;;;;;;0.87;100.00;101025.03;5089968;28;20034;-83
2022/01/08 09:39:16;;;;;;;41.95;21.98;;;;;;;0.93;100.00;101026.56;5089816;28;20128;-82
2022/01/08 09:41:41;;;;;;;47.25;22.92;;;;;;;0.92;100.00;101017.94;5087384;28;20419;-83
2022/01/08 09:44:07;;;;;;;42.25;23.23;;;;;;;0.96;100.00;101018.69;5104516;28;20395;-83
2022/01/08 09:46:32;;;;;;;43.15;22.60;;;;;;;1.00;100.00;101020.28;5088337;28;20020;-83
2022/01/08 09:48:58;;;;;;;43.45;23.80;;;;;;;1.01;100.00;101016.81;5088527;28;20384;-83
2022/01/08 09:51:26;;;;;;;43.45;22.88;;;;;;;1.04;100.00;101010.69;5086316;28;20028;-83
2022/01/08 09:53:51;;;;;;;48.10;24.63;;;;;;;1.07;100.00;101006.25;5089532;28;20035;-83
2022/01/08 09:56:16;;;;;;;42.47;23.23;;;;;;;1.09;100.00;100999.25;5088538;28;20020;-83
2022/01/08 09:58:42;;;;;;;40.65;23.65;;;;;;;1.12;100.00;100987.94;5089442;28;20089;-83
2022/01/08 10:01:27;;;;;;;42.92;22.42;;;;;;;1.16;100.00;100990.38;5088091;28;20476;-83
2022/01/08 10:03:53;;;;;;;47.05;23.92;;;;;;;1.19;100.00;100982.50;5067326;28;20048;-82
2022/01/08 10:06:24;;;;;;;46.50;22.92;;;;;;;1.23;100.00;100972.91;5069260;28;20033;-83
2022/01/08 10:08:50;;;;;;;47.55;24.45;;;;;;;1.25;100.00;100969.38;5071881;28;20065;-83
2022/01/08 10:11:16;;;;;;;47.30;23.77;;;;;;;1.29;100.00;100953.72;5087925;28;20395;-83
2022/01/08 10:13:43;;;;;;;48.60;23.77;;;;;;;1.33;100.00;100947.53;5088706;28;20020;-82
2022/01/08 10:18:59;;;;;;;46.35;23.70;;;;;;;1.38;100.00;100928.31;5088259;28;20039;-83
2022/01/08 10:21:32;;;;;;;46.92;22.55;;;;;;;1.41;100.00;100912.66;5077731;28;20118;-82
2022/01/08 10:23:58;;;;;;;46.42;22.48;;;;;;;1.47;100.00;100916.78;5083242;28;20035;-83
2022/01/08 10:26:31;;;;;;;41.88;23.17;;;;;;;1.50;100.00;100906.31;5093741;28;20071;-82
2022/01/08 10:28:58;;;;;;;41.63;22.23;;;;;;;1.51;99.99;100898.47;5109398;28;20068;-82
2022/01/08 10:31:26;;;;;;;41.10;20.88;;;;;;;1.56;99.78;100906.06;5091972;28;20055;-82
2022/01/08 10:34:02;;;;;;;40.05;21.00;;;;;;;1.58;99.08;100899.09;5091799;28;20368;-84
2022/01/08 10:36:36;;;;;;;38.67;21.27;;;;;;;1.59;99.50;100890.41;5090953;28;20040;-82
2022/01/08 10:39:05;;;;;;;40.35;20.10;;;;;;;1.64;98.64;100893.72;5091815;28;20068;-82
2022/01/08 10:41:30;;;;;;;36.60;20.63;;;;;;;1.67;99.20;100880.63;5092040;28;20526;-78
2022/01/08 10:44:11;;;;;;;40.88;20.73;;;;;;;1.70;98.83;100871.88;5090217;28;20035;-80
2022/01/08 10:46:38;;;;;;;41.15;21.33;;;;;;;1.71;98.64;100864.06;5070920;28;20028;-80
2022/01/08 10:49:04;;;;;;;38.75;21.23;;;;;;;1.73;98.79;100856.22;5083159;28;20020;-77
2022/01/08 10:51:36;;;;;;;41.92;19.85;;;;;;;1.75;98.65;100850.06;5089147;28;20128;-77
2022/01/08 10:54:14;;;;;;;43.10;21.35;;;;;;;1.79;98.44;100841.25;5092645;28;20027;-79
2022/01/08 10:56:48;;;;;;;35.67;19.90;;;;;;;1.82;98.49;100835.09;5092810;28;20470;-85
2022/01/08 10:59:25;;;;;;;41.05;20.40;;;;;;;1.83;98.31;100837.66;5091739;28;20031;-82
2022/01/08 11:02:06;;;;;;;33.45;19.05;;;;;;;1.88;98.53;100835.72;5092092;28;20036;-82
2022/01/08 11:04:35;;;;;;;36.92;18.75;;;;;;;1.88;98.17;100825.34;5092014;28;20437;-80
2022/01/08 11:07:07;;;;;;;35.72;19.23;;;;;;;1.92;98.28;100814.84;5090875;28;20107;-80
2022/01/08 11:09:35;;;;;;;30.23;18.63;;;;;;;1.94;97.78;100813.88;5071891;28;20032;-79
2022/01/08 11:12:01;;;;;;;34.67;17.67;;;;;;;1.97;97.90;100808.56;5072918;28;20028;-79
2022/01/08 11:15:48;;;;;;;31.10;17.50;;;;;;;2.01;98.43;100798.94;5087141;28;20032;-80
2022/01/08 11:17:32;;;;;;;30.17;16.80;;;;;;;2.02;97.73;100785.91;5067101;28;20040;-79
2022/01/08 11:19:59;;;;;;;31.90;15.80;;;;;;;2.04;97.78;100775.47;5070727;28;20021;-80
2022/01/08 11:22:28;;;;;;;29.15;15.07;;;;;;;2.07;96.79;100772.75;5072164;28;20070;-80
2022/01/08 11:24:55;;;;;;;26.42;14.52;;;;;;;2.11;97.48;100763.94;5087714;28;20024;-80
2022/01/08 11:27:24;;;;;;;26.60;14.95;;;;;;;2.14;97.16;100762.06;5105466;28;20391;-82
2022/01/08 11:29:57;;;;;;;27.65;14.02;;;;;;;2.19;97.06;100756.66;5108243;28;20020;-82
2022/01/08 11:32:26;;;;;;;26.48;13.98;;;;;;;2.20;97.06;100743.63;5090909;28;20086;-82
2022/01/08 11:34:52;;;;;;;27.55;14.07;;;;;;;2.24;97.22;100749.53;5092111;28;20386;-82